sensor_id;sensor_type;location;lat;lon;timestamp;pressure;altitude;pressure_sealevel;temperature;humidity
49459;BME280;35354;51.296;16.924;2023-02-14T00:01:16;101590.50;;;6.02;89.50
49459;BME280;35354;51.296;16.924;2023-02-14T00:03:42;101587.03;;;5.98;89.09
49459;BME280;35354;51.296;16.924;2023-02-14T00:06:09;101571.44;;;5.84;89.19
49459;BME280;35354;51.296;16.924;2023-02-14T00:08:35;101592.22;;;5.95;89.05
49459;BME280;35354;51.296;16.924;2023-02-14T00:11:02;101595.66;;;5.95;89.05
49459;BME280;35354;51.296;16.924;2023-02-14T00:13:27;101574.88;;;5.79;89.17
49459;BME280;35354;51.296;16.924;2023-02-14T00:15:54;101580.06;;;5.85;89.60
49459;BME280;35354;51.296;16.924;2023-02-14T00:18:19;101552.47;;;5.78;89.40
49459;BME280;35354;51.296;16.924;2023-02-14T00:20:45;101584.44;;;5.95;89.29
49459;BME280;35354;51.296;16.924;2023-02-14T00:23:10;101553.31;;;5.76;89.47
49459;BME280;35354;51.296;16.924;2023-02-14T00:25:35;101585.28;;;5.91;89.35
49459;BME280;35354;51.296;16.924;2023-02-14T00:28:01;101577.47;;;5.89;89.31
49459;BME280;35354;51.296;16.924;2023-02-14T00:30:26;101584.44;;;5.95;89.46
49459;BME280;35354;51.296;16.924;2023-02-14T00:32:52;101584.44;;;5.92;89.90
49459;BME280;35354;51.296;16.924;2023-02-14T00:35:17;101561.06;;;5.75;89.73
49459;BME280;35354;51.296;16.924;2023-02-14T00:37:44;101556.75;;;5.71;89.92
49459;BME280;35354;51.296;16.924;2023-02-14T00:40:10;101564.53;;;5.79;89.66
49459;BME280;35354;51.296;16.924;2023-02-14T00:42:35;101553.28;;;5.67;89.69
49459;BME280;35354;51.296;16.924;2023-02-14T00:45:01;101584.34;;;5.81;89.43
49459;BME280;35354;51.296;16.924;2023-02-14T00:47:26;101599.91;;;5.87;89.88
49459;BME280;35354;51.296;16.924;2023-02-14T00:49:51;101592.16;;;5.86;89.74
49459;BME280;35354;51.296;16.924;2023-02-14T00:52:17;101566.22;;;5.70;90.27
49459;BME280;35354;51.296;16.924;2023-02-14T00:54:42;101569.66;;;5.72;90.20
49459;BME280;35354;51.296;16.924;2023-02-14T00:57:07;101582.66;;;5.82;89.52
49459;BME280;35354;51.296;16.924;2023-02-14T00:59:33;101581.78;;;5.78;90.05
49459;BME280;35354;51.296;16.924;2023-02-14T01:01:58;101571.38;;;5.67;89.88
49459;BME280;35354;51.296;16.924;2023-02-14T01:04:23;101575.75;;;5.78;90.07
49459;BME280;35354;51.296;16.924;2023-02-14T01:06:49;101575.72;;;5.79;90.35
49459;BME280;35354;51.296;16.924;2023-02-14T01:09:14;101567.06;;;5.72;90.17
49459;BME280;35354;51.296;16.924;2023-02-14T01:11:39;101595.59;;;5.88;89.87
49459;BME280;35354;51.296;16.924;2023-02-14T01:14:05;101585.25;;;5.86;90.16
49459;BME280;35354;51.296;16.924;2023-02-14T01:16:31;101590.41;;;5.88;89.87
49459;BME280;35354;51.296;16.924;2023-02-14T01:18:59;101562.78;;;5.76;89.88
49459;BME280;35354;51.296;16.924;2023-02-14T01:21:27;101590.44;;;5.86;89.82
49459;BME280;35354;51.296;16.924;2023-02-14T01:23:56;101591.28;;;5.88;89.99
49459;BME280;35354;51.296;16.924;2023-02-14T01:26:23;101558.47;;;5.72;89.74
49459;BME280;35354;51.296;16.924;2023-02-14T01:28:49;101555.88;;;5.72;89.50
49459;BME280;35354;51.296;16.924;2023-02-14T01:31:20;101555.00;;;5.71;89.90
49459;BME280;35354;51.296;16.924;2023-02-14T01:33:47;101582.59;;;5.77;89.46
49459;BME280;35354;51.296;16.924;2023-02-14T01:36:19;101579.22;;;5.86;89.56
49459;BME280;35354;51.296;16.924;2023-02-14T01:38:46;101579.19;;;5.84;89.24
49459;BME280;35354;51.296;16.924;2023-02-14T01:41:11;101581.78;;;5.83;89.43
49459;BME280;35354;51.296;16.924;2023-02-14T01:46:14;101571.41;;;5.81;89.28
49459;BME280;35354;51.296;16.924;2023-02-14T01:48:39;101553.28;;;5.70;89.41
49459;BME280;35354;51.296;16.924;2023-02-14T01:51:05;101580.91;;;5.79;89.07
49459;BME280;35354;51.296;16.924;2023-02-14T01:53:31;101536.00;;;5.56;88.98
49459;BME280;35354;51.296;16.924;2023-02-14T01:56:04;101557.59;;;5.68;88.85
49459;BME280;35354;51.296;16.924;2023-02-14T01:58:32;101573.16;;;5.78;89.19
49459;BME280;35354;51.296;16.924;2023-02-14T02:01:01;101530.81;;;5.51;89.38
49459;BME280;35354;51.296;16.924;2023-02-14T02:03:37;101574.00;;;5.76;89.40
49459;BME280;35354;51.296;16.924;2023-02-14T02:06:14;101553.25;;;5.63;89.28
49459;BME280;35354;51.296;16.924;2023-02-14T02:09:09;101576.59;;;5.73;89.40
49459;BME280;35354;51.296;16.924;2023-02-14T02:11:36;101571.41;;;5.73;89.27
49459;BME280;35354;51.296;16.924;2023-02-14T02:14:02;101565.38;;;5.74;88.85
49459;BME280;35354;51.296;16.924;2023-02-14T02:24:15;101563.66;;;5.76;88.96
49459;BME280;35354;51.296;16.924;2023-02-14T02:38:53;101548.97;;;5.72;89.07
49459;BME280;35354;51.296;16.924;2023-02-14T02:41:59;101548.13;;;5.72;88.65
49459;BME280;35354;51.296;16.924;2023-02-14T02:44:41;101539.50;;;5.70;88.86
49459;BME280;35354;51.296;16.924;2023-02-14T02:50:03;101543.81;;;5.71;89.17
49459;BME280;35354;51.296;16.924;2023-02-14T02:52:58;101533.47;;;5.68;89.27
49459;BME280;35354;51.296;16.924;2023-02-14T02:55:49;101531.72;;;5.64;89.37
49459;BME280;35354;51.296;16.924;2023-02-14T02:58:48;101524.81;;;5.64;89.31
49459;BME280;35354;51.296;16.924;2023-02-14T03:01:24;101529.16;;;5.65;89.08
49459;BME280;35354;51.296;16.924;2023-02-14T03:03:54;101533.47;;;5.65;89.04
49459;BME280;35354;51.296;16.924;2023-02-14T03:06:41;101511.00;;;5.55;89.21
49459;BME280;35354;51.296;16.924;2023-02-14T03:11:54;101498.09;;;5.53;88.93
49459;BME280;35354;51.296;16.924;2023-02-14T03:14:34;101494.63;;;5.49;88.86
49459;BME280;35354;51.296;16.924;2023-02-14T03:17:18;101509.28;;;5.55;88.58
49459;BME280;35354;51.296;16.924;2023-02-14T03:20:16;101485.97;;;5.35;89.06
49459;BME280;35354;51.296;16.924;2023-02-14T03:23:05;101525.69;;;5.62;88.61
49459;BME280;35354;51.296;16.924;2023-02-14T03:30:57;101534.28;;;5.59;88.90
49459;BME280;35354;51.296;16.924;2023-02-14T03:33:32;101536.00;;;5.60;89.00
49459;BME280;35354;51.296;16.924;2023-02-14T03:41:31;101510.09;;;5.46;89.19
49459;BME280;35354;51.296;16.924;2023-02-14T03:44:02;101536.88;;;5.62;88.83
49459;BME280;35354;51.296;16.924;2023-02-14T03:46:33;101515.31;;;5.49;88.82
49459;BME280;35354;51.296;16.924;2023-02-14T03:49:02;101532.53;;;5.55;88.89
49459;BME280;35354;51.296;16.924;2023-02-14T03:51:31;101548.06;;;5.57;88.95
49459;BME280;35354;51.296;16.924;2023-02-14T03:54:00;101544.59;;;5.55;89.26
49459;BME280;35354;51.296;16.924;2023-02-14T03:56:45;101550.63;;;5.55;89.03
49459;BME280;35354;51.296;16.924;2023-02-14T03:59:17;101528.22;;;5.45;89.23
49459;BME280;35354;51.296;16.924;2023-02-14T04:01:48;101535.97;;;5.46;88.78
49459;BME280;35354;51.296;16.924;2023-02-14T04:04:18;101552.34;;;5.56;88.84
49459;BME280;35354;51.296;16.924;2023-02-14T04:06:44;101532.50;;;5.44;89.14
49459;BME280;35354;51.296;16.924;2023-02-14T04:09:10;101527.34;;;5.44;88.76
49459;BME280;35354;51.296;16.924;2023-02-14T04:11:35;101523.91;;;5.44;88.33
49459;BME280;35354;51.296;16.924;2023-02-14T04:14:03;101526.47;;;5.41;88.54
49459;BME280;35354;51.296;16.924;2023-02-14T04:16:28;101546.34;;;5.54;88.62
49459;BME280;35354;51.296;16.924;2023-02-14T04:18:54;101516.09;;;5.38;88.55
49459;BME280;35354;51.296;16.924;2023-02-14T04:21:37;101554.09;;;5.54;88.63
49459;BME280;35354;51.296;16.924;2023-02-14T04:24:03;101553.19;;;5.50;88.75
49459;BME280;35354;51.296;16.924;2023-02-14T04:26:28;101541.97;;;5.47;89.04
49459;BME280;35354;51.296;16.924;2023-02-14T04:28:54;101540.25;;;5.46;88.67
49459;BME280;35354;51.296;16.924;2023-02-14T04:31:19;101541.09;;;5.42;88.60
49459;BME280;35354;51.296;16.924;2023-02-14T04:33:45;101535.06;;;5.43;88.52
49459;BME280;35354;51.296;16.924;2023-02-14T04:36:12;101525.56;;;5.34;88.55
49459;BME280;35354;51.296;16.924;2023-02-14T04:38:38;101502.28;;;5.23;88.39
49459;BME280;35354;51.296;16.924;2023-02-14T04:41:03;101526.44;;;5.36;88.53
49459;BME280;35354;51.296;16.924;2023-02-14T04:43:28;101543.72;;;5.51;88.44
49459;BME280;35354;51.296;16.924;2023-02-14T04:45:54;101513.53;;;5.36;88.67
49459;BME280;35354;51.296;16.924;2023-02-14T04:48:19;101538.56;;;5.51;88.26
49459;BME280;35354;51.296;16.924;2023-02-14T04:50:50;101524.75;;;5.41;88.36
49459;BME280;35354;51.296;16.924;2023-02-14T04:53:15;101515.25;;;5.39;88.75
49459;BME280;35354;51.296;16.924;2023-02-14T04:55:43;101533.41;;;5.48;88.61
49459;BME280;35354;51.296;16.924;2023-02-14T04:58:08;101541.16;;;5.48;89.03
49459;BME280;35354;51.296;16.924;2023-02-14T05:00:34;101516.94;;;5.32;89.06
49459;BME280;35354;51.296;16.924;2023-02-14T05:02:59;101541.94;;;5.38;88.99
49459;BME280;35354;51.296;16.924;2023-02-14T05:05:25;101541.16;;;5.48;88.42
49459;BME280;35354;51.296;16.924;2023-02-14T05:07:50;101519.53;;;5.32;88.48
49459;BME280;35354;51.296;16.924;2023-02-14T05:10:15;101531.69;;;5.48;88.24
49459;BME280;35354;51.296;16.924;2023-02-14T05:12:41;101524.75;;;5.41;88.72
49459;BME280;35354;51.296;16.924;2023-02-14T05:15:06;101550.66;;;5.52;88.92
49459;BME280;35354;51.296;16.924;2023-02-14T05:17:32;101550.59;;;5.46;88.73
49459;BME280;35354;51.296;16.924;2023-02-14T05:19:57;101534.19;;;5.39;88.67
49459;BME280;35354;51.296;16.924;2023-02-14T05:22:23;101552.34;;;5.48;88.71
49459;BME280;35354;51.296;16.924;2023-02-14T05:24:48;101525.56;;;5.34;88.80
49459;BME280;35354;51.296;16.924;2023-02-14T05:27:13;101522.94;;;5.30;89.23
49459;BME280;35354;51.296;16.924;2023-02-14T05:29:39;101529.00;;;5.35;89.05
49459;BME280;35354;51.296;16.924;2023-02-14T05:32:04;101541.06;;;5.33;89.12
49459;BME280;35354;51.296;16.924;2023-02-14T05:34:29;101548.00;;;5.41;88.75
49459;BME280;35354;51.296;16.924;2023-02-14T05:36:55;101543.66;;;5.39;88.66
49459;BME280;35354;51.296;16.924;2023-02-14T05:39:21;101509.19;;;5.29;88.49
49459;BME280;35354;51.296;16.924;2023-02-14T05:41:47;101517.78;;;5.30;88.48
49459;BME280;35354;51.296;16.924;2023-02-14T05:44:12;101546.25;;;5.39;88.21
49459;BME280;35354;51.296;16.924;2023-02-14T05:46:37;101534.16;;;5.30;88.11
49459;BME280;35354;51.296;16.924;2023-02-14T05:49:03;101527.25;;;5.23;88.50
49459;BME280;35354;51.296;16.924;2023-02-14T05:51:28;101538.47;;;5.28;88.22
49459;BME280;35354;51.296;16.924;2023-02-14T05:53:53;101547.06;;;5.27;88.44
49459;BME280;35354;51.296;16.924;2023-02-14T05:56:19;101576.41;;;5.41;88.71
49459;BME280;35354;51.296;16.924;2023-02-14T05:58:44;101545.34;;;5.29;88.34
49459;BME280;35354;51.296;16.924;2023-02-14T06:01:09;101572.13;;;5.42;88.43
49459;BME280;35354;51.296;16.924;2023-02-14T06:03:35;101556.56;;;5.33;88.99
49459;BME280;35354;51.296;16.924;2023-02-14T06:06:00;101566.94;;;5.42;88.47
49459;BME280;35354;51.296;16.924;2023-02-14T06:08:25;101561.72;;;5.34;88.91
49459;BME280;35354;51.296;16.924;2023-02-14T06:10:51;101590.19;;;5.43;88.97
49459;BME280;35354;51.296;16.924;2023-02-14T06:13:16;101547.94;;;5.29;88.50
49459;BME280;35354;51.296;16.924;2023-02-14T06:15:41;101555.69;;;5.29;88.74
49459;BME280;35354;51.296;16.924;2023-02-14T06:18:07;101560.88;;;5.32;88.77
49459;BME280;35354;51.296;16.924;2023-02-14T06:20:32;101554.84;;;5.33;88.47
49459;BME280;35354;51.296;16.924;2023-02-14T06:22:57;101534.94;;;5.17;88.42
49459;BME280;35354;51.296;16.924;2023-02-14T06:25:23;101566.91;;;5.34;88.40
49459;BME280;35354;51.296;16.924;2023-02-14T06:27:49;101575.50;;;5.35;88.08
49459;BME280;35354;51.296;16.924;2023-02-14T06:30:16;101589.38;;;5.46;87.99
49459;BME280;35354;51.296;16.924;2023-02-14T06:32:41;101586.78;;;5.44;87.83
49459;BME280;35354;51.296;16.924;2023-02-14T06:35:07;101581.53;;;5.34;88.58
49459;BME280;35354;51.296;16.924;2023-02-14T06:37:33;101597.13;;;5.46;88.22
49459;BME280;35354;51.296;16.924;2023-02-14T06:39:58;101584.19;;;5.44;88.24
49459;BME280;35354;51.296;16.924;2023-02-14T06:42:24;101550.50;;;5.23;88.65
49459;BME280;35354;51.296;16.924;2023-02-14T06:44:50;101578.97;;;5.38;88.20
49459;BME280;35354;51.296;16.924;2023-02-14T06:47:15;101600.59;;;5.49;88.61
49459;BME280;35354;51.296;16.924;2023-02-14T06:49:40;101606.63;;;5.48;88.78
49459;BME280;35354;51.296;16.924;2023-02-14T06:52:06;101574.66;;;5.34;88.56
49459;BME280;35354;51.296;16.924;2023-02-14T06:54:31;101601.44;;;5.51;88.15
49459;BME280;35354;51.296;16.924;2023-02-14T06:56:56;101592.84;;;5.51;88.54
49459;BME280;35354;51.296;16.924;2023-02-14T06:59:22;101607.50;;;5.55;88.28
49459;BME280;35354;51.296;16.924;2023-02-14T07:01:47;101608.34;;;5.56;88.44
49459;BME280;35354;51.296;16.924;2023-02-14T07:04:12;101600.59;;;5.56;87.97
49459;BME280;35354;51.296;16.924;2023-02-14T07:06:38;101610.97;;;5.59;88.00
49459;BME280;35354;51.296;16.924;2023-02-14T07:09:04;101602.34;;;5.52;88.00
49459;BME280;35354;51.296;16.924;2023-02-14T07:11:30;101615.25;;;5.55;88.29
49459;BME280;35354;51.296;16.924;2023-02-14T07:13:55;101604.91;;;5.52;88.14
49459;BME280;35354;51.296;16.924;2023-02-14T07:16:20;101595.41;;;5.49;87.94
49459;BME280;35354;51.296;16.924;2023-02-14T07:18:46;101593.66;;;5.42;88.35
49459;BME280;35354;51.296;16.924;2023-02-14T07:21:11;101602.31;;;5.49;88.39
49459;BME280;35354;51.296;16.924;2023-02-14T07:23:36;101602.34;;;5.60;87.82
49459;BME280;35354;51.296;16.924;2023-02-14T07:26:02;101610.13;;;5.63;88.09
49459;BME280;35354;51.296;16.924;2023-02-14T07:28:27;101613.59;;;5.68;88.53
49459;BME280;35354;51.296;16.924;2023-02-14T07:30:57;101612.75;;;5.72;87.98
49459;BME280;35354;51.296;16.924;2023-02-14T07:33:23;101611.91;;;5.74;88.14
49459;BME280;35354;51.296;16.924;2023-02-14T07:35:48;101591.19;;;5.65;87.91
49459;BME280;35354;51.296;16.924;2023-02-14T07:38:13;101619.63;;;5.68;87.90
49459;BME280;35354;51.296;16.924;2023-02-14T07:40:39;101611.31;;;4.81;90.46
49459;BME280;35354;51.296;16.924;2023-02-14T07:43:04;101617.16;;;4.63;91.18
49459;BME280;35354;51.296;16.924;2023-02-14T07:45:29;101621.34;;;4.47;92.58
49459;BME280;35354;51.296;16.924;2023-02-14T07:47:55;101590.06;;;4.18;93.88
49459;BME280;35354;51.296;16.924;2023-02-14T07:50:21;101633.13;;;4.25;95.04
49459;BME280;35354;51.296;16.924;2023-02-14T07:52:47;101621.06;;;4.23;94.69
49459;BME280;35354;51.296;16.924;2023-02-14T07:55:13;101620.16;;;4.19;95.15
49459;BME280;35354;51.296;16.924;2023-02-14T07:57:38;101623.59;;;4.20;95.43
49459;BME280;35354;51.296;16.924;2023-02-14T08:00:05;101603.69;;;4.07;96.06
49459;BME280;35354;51.296;16.924;2023-02-14T08:02:31;101588.94;;;3.95;95.56
49459;BME280;35354;51.296;16.924;2023-02-14T08:04:56;101620.97;;;4.14;95.63
49459;BME280;35354;51.296;16.924;2023-02-14T08:07:21;101614.09;;;4.16;95.03
49459;BME280;35354;51.296;16.924;2023-02-14T08:09:47;101600.31;;;4.11;94.28
49459;BME280;35354;51.296;16.924;2023-02-14T08:12:12;101615.88;;;4.20;94.54
49459;BME280;35354;51.296;16.924;2023-02-14T08:14:56;101604.63;;;4.13;95.28
49459;BME280;35354;51.296;16.924;2023-02-14T08:17:42;101588.22;;;4.08;95.24
49459;BME280;35354;51.296;16.924;2023-02-14T08:20:07;101613.28;;;4.18;95.32
49459;BME280;35354;51.296;16.924;2023-02-14T08:22:33;101586.47;;;4.04;95.39
49459;BME280;35354;51.296;16.924;2023-02-14T08:24:58;101617.69;;;4.27;95.36
49459;BME280;35354;51.296;16.924;2023-02-14T08:27:23;101615.06;;;4.24;95.12
49459;BME280;35354;51.296;16.924;2023-02-14T08:29:49;101640.13;;;4.34;95.67
49459;BME280;35354;51.296;16.924;2023-02-14T08:32:14;101641.84;;;4.37;96.29
49459;BME280;35354;51.296;16.924;2023-02-14T08:34:40;101621.06;;;4.23;95.81
49459;BME280;35354;51.296;16.924;2023-02-14T08:37:05;101618.50;;;4.24;96.06
49459;BME280;35354;51.296;16.924;2023-02-14T08:39:30;101641.03;;;4.39;95.87
49459;BME280;35354;51.296;16.924;2023-02-14T08:41:57;101621.13;;;4.26;96.19
49459;BME280;35354;51.296;16.924;2023-02-14T08:44:22;101643.59;;;4.41;95.79
49459;BME280;35354;51.296;16.924;2023-02-14T08:46:47;101617.69;;;4.27;95.17
49459;BME280;35354;51.296;16.924;2023-02-14T08:49:13;101634.19;;;4.43;95.32
49459;BME280;35354;51.296;16.924;2023-02-14T08:51:38;101643.78;;;4.56;94.67
49459;BME280;35354;51.296;16.924;2023-02-14T08:54:03;101630.25;;;4.83;93.40
49459;BME280;35354;51.296;16.924;2023-02-14T08:56:29;101643.91;;;4.70;93.11
49459;BME280;35354;51.296;16.924;2023-02-14T08:58:54;101645.50;;;4.57;93.03
49459;BME280;35354;51.296;16.924;2023-02-14T09:01:19;101645.81;;;4.91;94.32
49459;BME280;35354;51.296;16.924;2023-02-14T09:03:45;101656.06;;;4.82;93.23
49459;BME280;35354;51.296;16.924;2023-02-14T09:06:13;101628.28;;;4.56;92.51
49459;BME280;35354;51.296;16.924;2023-02-14T09:08:41;101649.22;;;4.87;93.46
49459;BME280;35354;51.296;16.924;2023-02-14T09:11:07;101651.88;;;4.96;92.11
49459;BME280;35354;51.296;16.924;2023-02-14T09:13:32;101634.47;;;4.73;91.44
49459;BME280;35354;51.296;16.924;2023-02-14T09:16:02;101649.06;;;4.71;92.42
49459;BME280;35354;51.296;16.924;2023-02-14T09:18:27;101628.66;;;4.97;91.39
49459;BME280;35354;51.296;16.924;2023-02-14T09:20:52;101623.28;;;4.73;91.46
49459;BME280;35354;51.296;16.924;2023-02-14T09:23:18;101650.81;;;4.74;91.66
49459;BME280;35354;51.296;16.924;2023-02-14T09:25:43;101656.28;;;5.08;92.16
49459;BME280;35354;51.296;16.924;2023-02-14T09:28:08;101633.72;;;4.88;91.30
49459;BME280;35354;51.296;16.924;2023-02-14T09:30:34;101616.34;;;4.64;90.90
49459;BME280;35354;51.296;16.924;2023-02-14T09:32:59;101633.72;;;4.85;91.89
49459;BME280;35354;51.296;16.924;2023-02-14T09:35:28;101630.34;;;4.97;91.29
49459;BME280;35354;51.296;16.924;2023-02-14T09:38:12;101644.09;;;4.90;91.10
49459;BME280;35354;51.296;16.924;2023-02-14T09:40:37;101655.28;;;4.89;92.12
49459;BME280;35354;51.296;16.924;2023-02-14T09:43:15;101663.31;;;5.22;91.52
49459;BME280;35354;51.296;16.924;2023-02-14T09:45:50;101657.09;;;5.04;90.93
49459;BME280;35354;51.296;16.924;2023-02-14T09:50:48;101640.06;;;5.22;91.09
49459;BME280;35354;51.296;16.924;2023-02-14T09:53:32;101661.50;;;5.15;90.62
49459;BME280;35354;51.296;16.924;2023-02-14T09:58:37;101630.56;;;5.18;91.13
49459;BME280;35354;51.296;16.924;2023-02-14T10:01:22;101664.13;;;5.18;89.07
49459;BME280;35354;51.296;16.924;2023-02-14T10:04:01;101664.03;;;5.08;89.25
49459;BME280;35354;51.296;16.924;2023-02-14T10:06:59;101662.56;;;5.40;89.73
49459;BME280;35354;51.296;16.924;2023-02-14T10:12:32;101646.69;;;4.93;89.37
49459;BME280;35354;51.296;16.924;2023-02-14T10:15:03;101660.84;;;5.42;89.16
49459;BME280;35354;51.296;16.924;2023-02-14T10:17:42;101655.59;;;5.29;88.82
49459;BME280;35354;51.296;16.924;2023-02-14T10:20:26;101630.41;;;5.03;89.44
49459;BME280;35354;51.296;16.924;2023-02-14T10:23:31;101650.63;;;5.62;88.09
49459;BME280;35354;51.296;16.924;2023-02-14T10:26:08;101646.16;;;5.37;87.60
49459;BME280;35354;51.296;16.924;2023-02-14T10:28:41;101646.91;;;5.22;88.43
49459;BME280;35354;51.296;16.924;2023-02-14T10:34:03;101632.34;;;5.33;86.84
49459;BME280;35354;51.296;16.924;2023-02-14T10:50:46;101634.19;;;5.51;86.85
49459;BME280;35354;51.296;16.924;2023-02-14T10:58:22;101615.25;;;5.54;85.81
49459;BME280;35354;51.296;16.924;2023-02-14T11:01:00;101629.84;;;5.45;85.69
49459;BME280;35354;51.296;16.924;2023-02-14T11:03:27;101608.44;;;5.71;85.85
49459;BME280;35354;51.296;16.924;2023-02-14T11:05:53;101604.09;;;5.62;84.97
49459;BME280;35354;51.296;16.924;2023-02-14T11:08:35;101629.06;;;5.60;84.92
49459;BME280;35354;51.296;16.924;2023-02-14T11:15:52;101614.47;;;5.70;84.40
49459;BME280;35354;51.296;16.924;2023-02-14T11:18:23;101603.09;;;5.39;83.82
49459;BME280;35354;51.296;16.924;2023-02-14T11:21:09;101619.81;;;5.94;82.60
49459;BME280;35354;51.296;16.924;2023-02-14T11:23:45;101612.75;;;5.69;82.99
49459;BME280;35354;51.296;16.924;2023-02-14T11:26:24;101620.44;;;5.54;84.33
49459;BME280;35354;51.296;16.924;2023-02-14T11:28:58;101589.53;;;5.84;84.00
49459;BME280;35354;51.296;16.924;2023-02-14T11:31:27;101616.22;;;5.69;82.82
49459;BME280;35354;51.296;16.924;2023-02-14T11:33:52;101609.22;;;5.53;83.66
49459;BME280;35354;51.296;16.924;2023-02-14T11:36:18;101590.38;;;5.80;84.26
49459;BME280;35354;51.296;16.924;2023-02-14T11:38:44;101583.44;;;5.73;83.01
49459;BME280;35354;51.296;16.924;2023-02-14T11:41:18;101564.38;;;5.46;82.95
49459;BME280;35354;51.296;16.924;2023-02-14T11:43:44;101598.09;;;5.72;83.52
49459;BME280;35354;51.296;16.924;2023-02-14T11:51:28;101552.25;;;5.29;82.30
49459;BME280;35354;51.296;16.924;2023-02-14T11:53:57;101591.34;;;5.96;81.51
49459;BME280;35354;51.296;16.924;2023-02-14T11:56:43;101560.19;;;5.73;81.01
49459;BME280;35354;51.296;16.924;2023-02-14T11:59:11;101565.28;;;5.56;82.82
49459;BME280;35354;51.296;16.924;2023-02-14T12:01:38;101567.03;;;5.63;83.28
49459;BME280;35354;51.296;16.924;2023-02-14T12:04:06;101575.00;;;6.05;82.13
49459;BME280;35354;51.296;16.924;2023-02-14T12:06:38;101573.34;;;6.46;80.68
49459;BME280;35354;51.296;16.924;2023-02-14T12:09:23;101569.81;;;6.11;81.12
49459;BME280;35354;51.296;16.924;2023-02-14T12:14:21;101575.84;;;6.02;82.26
49459;BME280;35354;51.296;16.924;2023-02-14T12:19:48;101564.72;;;6.64;80.33
49459;BME280;35354;51.296;16.924;2023-02-14T12:22:21;101554.38;;;6.32;79.62
49459;BME280;35354;51.296;16.924;2023-02-14T12:27:23;101570.69;;;6.04;81.66
49459;BME280;35354;51.296;16.924;2023-02-14T12:30:01;101550.03;;;6.36;81.06
49459;BME280;35354;51.296;16.924;2023-02-14T12:32:30;101556.97;;;6.70;80.15
49459;BME280;35354;51.296;16.924;2023-02-14T12:43:14;101570.75;;;6.33;81.07
49459;BME280;35354;51.296;16.924;2023-02-14T12:51:29;101554.38;;;6.66;79.25
49459;BME280;35354;51.296;16.924;2023-02-14T13:02:50;101548.22;;;5.92;81.51
49459;BME280;35354;51.296;16.924;2023-02-14T13:05:33;101481.66;;;5.43;82.00
49459;BME280;35354;51.296;16.924;2023-02-14T13:10:51;101550.94;;;6.58;79.97
49459;BME280;35354;51.296;16.924;2023-02-14T13:21:41;101532.72;;;7.04;78.17
49459;BME280;35354;51.296;16.924;2023-02-14T13:24:27;101516.34;;;7.02;76.93
49459;BME280;35354;51.296;16.924;2023-02-14T13:27:01;101535.28;;;7.16;77.04
49459;BME280;35354;51.296;16.924;2023-02-14T13:29:40;101509.41;;;7.11;77.15
49459;BME280;35354;51.296;16.924;2023-02-14T13:32:10;101521.44;;;7.24;76.22
49459;BME280;35354;51.296;16.924;2023-02-14T13:34:40;101530.94;;;7.32;76.26
49459;BME280;35354;51.296;16.924;2023-02-14T13:37:10;101529.22;;;7.31;76.50
49459;BME280;35354;51.296;16.924;2023-02-14T13:39:42;101538.75;;;7.27;76.36
49459;BME280;35354;51.296;16.924;2023-02-14T13:42:10;101502.47;;;7.15;76.40
49459;BME280;35354;51.296;16.924;2023-02-14T13:44:47;101515.47;;;7.16;76.78
49459;BME280;35354;51.296;16.924;2023-02-14T13:47:24;101520.66;;;7.16;76.06
49459;BME280;35354;51.296;16.924;2023-02-14T13:49:54;101534.41;;;7.28;75.87
49459;BME280;35354;51.296;16.924;2023-02-14T13:55:15;101539.59;;;7.28;76.18
49459;BME280;35354;51.296;16.924;2023-02-14T13:57:42;101540.44;;;7.31;76.51
49459;BME280;35354;51.296;16.924;2023-02-14T14:02:51;101535.28;;;7.27;75.75
49459;BME280;35354;51.296;16.924;2023-02-14T14:10:50;101522.34;;;7.14;76.45
49459;BME280;35354;51.296;16.924;2023-02-14T14:19:00;101521.50;;;7.14;76.49
49459;BME280;35354;51.296;16.924;2023-02-14T14:21:32;101542.19;;;7.20;76.85
49459;BME280;35354;51.296;16.924;2023-02-14T14:26:47;101529.28;;;7.17;76.74
49459;BME280;35354;51.296;16.924;2023-02-14T14:29:27;101537.06;;;7.12;76.51
49459;BME280;35354;51.296;16.924;2023-02-14T14:31:54;101514.59;;;6.99;76.72
49459;BME280;35354;51.296;16.924;2023-02-14T14:34:23;101512.00;;;6.99;76.52
49459;BME280;35354;51.296;16.924;2023-02-14T14:36:59;101528.44;;;7.09;76.22
49459;BME280;35354;51.296;16.924;2023-02-14T14:39:27;101524.09;;;7.11;76.05
49459;BME280;35354;51.296;16.924;2023-02-14T14:41:53;101531.03;;;7.04;76.17
49459;BME280;35354;51.296;16.924;2023-02-14T14:44:18;101493.06;;;6.82;76.15
49459;BME280;35354;51.296;16.924;2023-02-14T14:46:44;101531.88;;;7.03;75.82
49459;BME280;35354;51.296;16.924;2023-02-14T14:49:11;101525.84;;;7.03;75.80
49459;BME280;35354;51.296;16.924;2023-02-14T14:51:36;101509.44;;;6.90;75.93
49459;BME280;35354;51.296;16.924;2023-02-14T14:54:06;101530.16;;;7.00;76.35
49459;BME280;35354;51.296;16.924;2023-02-14T14:56:47;101535.34;;;6.97;76.23
49459;BME280;35354;51.296;16.924;2023-02-14T14:59:34;101522.41;;;6.93;76.30
49459;BME280;35354;51.296;16.924;2023-02-14T15:02:01;101485.31;;;6.77;76.60
49459;BME280;35354;51.296;16.924;2023-02-14T15:04:28;101523.25;;;6.95;77.04
49459;BME280;35354;51.296;16.924;2023-02-14T15:06:55;101510.31;;;6.89;77.47
49459;BME280;35354;51.296;16.924;2023-02-14T15:09:30;101512.03;;;6.94;76.80
49459;BME280;35354;51.296;16.924;2023-02-14T15:11:59;101507.75;;;6.87;76.58
49459;BME280;35354;51.296;16.924;2023-02-14T15:14:46;101505.16;;;6.81;77.20
49459;BME280;35354;51.296;16.924;2023-02-14T15:17:21;101506.03;;;6.79;76.80
49459;BME280;35354;51.296;16.924;2023-02-14T15:19:52;101511.22;;;6.79;77.41
49459;BME280;35354;51.296;16.924;2023-02-14T15:22:28;101461.19;;;6.50;77.71